Back to Top

Language: 

My Weather Underground Personal Weather Station Historical Data with Graphs...

Delerius Weather Station Historical Data
Daily Summary for April 27, 2017 Units:  English    Metric   Both
« Previous Day
Next Day »
Daily Weekly Monthly Yearly Custom
  High: Low: Average:
Temperature: 52.3 °F 32.9 °F 44.4 °F
Dew Point: 47.4 °F 29.5 °F 40 °F
Humidity: 95 % 73 % 85 %
Wind Speed: 13.0 mph 0.0 mph 4.7 mph
Wind Gust: 23.0 mph - -
Wind:- - WNW
Pressure: 30.14 in 29.97 in -
Precipitation: 0.17 in    
Historical Graphs
 
 
Tabular Data for April 27, 2017
Time Temperature Dew Point Pressure Wind Wind Speed Wind Gust Humidity Rainfall Rate (Hourly) solar Conditions
00:02 34.0 °F 29.9 °F 30.14 in Calm     85 % 0.00 in 0 W/m2
00:07 33.6 °F 29.9 °F 30.14 in Calm     86 % 0.00 in 0 W/m2
00:12 33.4 °F 29.7 °F 30.14 in Calm     86 % 0.00 in 0 W/m2
00:17 33.3 °F 29.5 °F 30.14 in Calm   1.0 mph 86 % 0.00 in 0 W/m2
00:22 33.3 °F 29.8 °F 30.14 in Calm   1.0 mph 87 % 0.00 in 0 W/m2
00:27 33.1 °F 29.6 °F 30.14 in Calm     87 % 0.00 in 0 W/m2
00:32 33.1 °F 29.6 °F 30.14 in Calm     87 % 0.00 in 0 W/m2
00:37 33.1 °F 29.9 °F 30.14 in Calm   1.0 mph 88 % 0.00 in 0 W/m2
00:42 33.1 °F 29.9 °F 30.14 in Calm   1.0 mph 88 % 0.00 in 0 W/m2
00:47 32.9 °F 29.7 °F 30.13 in Calm     88 % 0.00 in 0 W/m2
00:52 32.9 °F 29.7 °F 30.13 in Calm     88 % 0.00 in 0 W/m2
00:57 32.9 °F 30.0 °F 30.13 in Calm     89 % 0.00 in 0 W/m2
01:03 33.1 °F 30.2 °F 30.13 in Calm     89 % 0.00 in 0 W/m2
01:08 33.4 °F 30.8 °F 30.13 in Calm     90 % 0.00 in 0 W/m2
01:13 33.6 °F 30.7 °F 30.13 in Calm     89 % 0.00 in 0 W/m2
01:18 33.8 °F 30.9 °F 30.13 in Calm     89 % 0.00 in 0 W/m2
01:23 34.0 °F 31.1 °F 30.13 in Calm     89 % 0.00 in 0 W/m2
01:28 34.2 °F 31.3 °F 30.13 in Calm     89 % 0.00 in 0 W/m2
01:33 34.2 °F 31.3 °F 30.13 in Calm     89 % 0.00 in 0 W/m2
01:38 34.3 °F 31.4 °F 30.13 in Calm     89 % 0.00 in 0 W/m2
01:43 34.5 °F 31.6 °F 30.13 in Calm     89 % 0.00 in 0 W/m2
01:48 34.9 °F 32.0 °F 30.13 in Calm     89 % 0.00 in 0 W/m2
01:53 35.1 °F 32.1 °F 30.13 in Calm   1.0 mph 89 % 0.00 in 0 W/m2
01:58 35.2 °F 32.0 °F 30.12 in Calm   1.0 mph 88 % 0.00 in 0 W/m2
02:03 35.2 °F 32.0 °F 30.12 in Calm     88 % 0.00 in 0 W/m2
02:08 35.4 °F 32.2 °F 30.12 in Calm     88 % 0.00 in 0 W/m2
02:13 35.6 °F 32.4 °F 30.12 in Calm     88 % 0.00 in 0 W/m2
02:18 35.8 °F 32.6 °F 30.11 in Calm   1.0 mph 88 % 0.00 in 0 W/m2
02:23 35.8 °F 32.6 °F 30.11 in Calm   1.0 mph 88 % 0.00 in 0 W/m2
02:28 36.0 °F 32.8 °F 30.11 in NW 1.0 mph 5.0 mph 88 % 0.00 in 0 W/m2
02:33 36.1 °F 32.9 °F 30.11 in NW 2.0 mph 5.0 mph 88 % 0.00 in 0 W/m2
02:38 36.3 °F 32.8 °F 30.11 in NW 2.0 mph 5.0 mph 87 % 0.00 in 0 W/m2
02:43 36.5 °F 32.7 °F 30.11 in NW 2.0 mph 5.0 mph 86 % 0.00 in 0 W/m2
02:48 36.7 °F 32.6 °F 30.11 in NW 1.0 mph 5.0 mph 85 % 0.00 in 0 W/m2
02:53 36.7 °F 32.3 °F 30.11 in NW 1.0 mph 4.0 mph 84 % 0.00 in 0 W/m2
02:58 36.7 °F 32.0 °F 30.11 in NW 1.0 mph 4.0 mph 83 % 0.00 in 0 W/m2
03:03 36.5 °F 31.8 °F 30.11 in NW 1.0 mph 3.0 mph 83 % 0.00 in 0 W/m2
03:08 36.5 °F 31.8 °F 30.11 in NW 1.0 mph 4.0 mph 83 % 0.00 in 0 W/m2
03:13 36.5 °F 31.8 °F 30.11 in NW 2.0 mph 4.0 mph 83 % 0.00 in 0 W/m2
03:18 36.3 °F 31.7 °F 30.10 in NW 2.0 mph 4.0 mph 83 % 0.00 in 0 W/m2
03:24 36.5 °F 31.8 °F 30.10 in WNW 3.0 mph 6.0 mph 83 % 0.00 in 0 W/m2
03:29 36.7 °F 32.0 °F 30.10 in WNW 3.0 mph 6.0 mph 83 % 0.00 in 0 W/m2
03:34 36.9 °F 31.9 °F 30.10 in WNW 3.0 mph 6.0 mph 82 % 0.00 in 0 W/m2
03:39 36.9 °F 31.9 °F 30.10 in WNW 3.0 mph 5.0 mph 82 % 0.00 in 0 W/m2
03:44 36.9 °F 31.9 °F 30.10 in WNW 2.0 mph 5.0 mph 82 % 0.00 in 0 W/m2
03:49 36.9 °F 31.6 °F 30.10 in WNW 2.0 mph 5.0 mph 81 % 0.00 in 0 W/m2
03:54 36.9 °F 31.6 °F 30.10 in WNW 1.0 mph 5.0 mph 81 % 0.00 in 0 W/m2
03:59 36.9 °F 31.6 °F 30.10 in WNW 1.0 mph 4.0 mph 81 % 0.00 in 0 W/m2
04:04 36.7 °F 31.4 °F 30.10 in WNW 1.0 mph 4.0 mph 81 % 0.00 in 0 W/m2
04:09 36.7 °F 31.4 °F 30.10 in WNW 1.0 mph 5.0 mph 81 % 0.00 in 0 W/m2
04:14 36.7 °F 31.4 °F 30.10 in WNW 1.0 mph 5.0 mph 81 % 0.00 in 0 W/m2
04:19 36.5 °F 31.2 °F 30.09 in WNW 2.0 mph 4.0 mph 81 % 0.00 in 0 W/m2
04:24 36.3 °F 31.0 °F 30.09 in WNW 3.0 mph 6.0 mph 81 % 0.00 in 0 W/m2
04:29 36.5 °F 31.2 °F 30.09 in WNW 3.0 mph 6.0 mph 81 % 0.00 in 0 W/m2
04:34 36.5 °F 31.2 °F 30.09 in WNW 2.0 mph 6.0 mph 81 % 0.00 in 0 W/m2
04:39 36.7 °F 31.4 °F 30.09 in WNW 2.0 mph 5.0 mph 81 % 0.00 in 0 W/m2
04:44 36.7 °F 31.1 °F 30.09 in WNW 2.0 mph 5.0 mph 80 % 0.00 in 0 W/m2
04:49 36.7 °F 31.1 °F 30.09 in WNW 1.0 mph 5.0 mph 80 % 0.00 in 0 W/m2
04:54 36.7 °F 31.1 °F 30.09 in WNW 1.0 mph 4.0 mph 80 % 0.00 in 0 W/m2
04:59 36.7 °F 31.1 °F 30.09 in WNW 1.0 mph 4.0 mph 80 % 0.00 in 0 W/m2
05:04 36.5 °F 30.9 °F 30.09 in WNW 1.0 mph 3.0 mph 80 % 0.00 in 0 W/m2
05:09 36.3 °F 31.0 °F 30.09 in WNW 1.0 mph 5.0 mph 81 % 0.00 in 0 W/m2
05:14 36.1 °F 30.9 °F 30.09 in WNW 1.0 mph 5.0 mph 81 % 0.00 in 0 W/m2
05:19 36.1 °F 30.9 °F 30.08 in WNW 1.0 mph 3.0 mph 81 % 0.00 in 0 W/m2
05:20 36.1 °F 30.9 °F 30.08 in WNW 1.0 mph 3.0 mph 81 % 0.00 in 0 W/m2
05:25 36.1 °F 31.2 °F 30.08 in WNW 2.0 mph 6.0 mph 82 % 0.00 in 0 W/m2
05:31 36.1 °F 31.2 °F 30.08 in WNW 2.0 mph 6.0 mph 82 % 0.00 in 0 W/m2
05:36 36.1 °F 31.2 °F 30.08 in WNW 2.0 mph 5.0 mph 82 % 0.00 in 0 W/m2
05:41 36.3 °F 31.4 °F 30.08 in WNW 3.0 mph 6.0 mph 82 % 0.00 in 0 W/m2
05:46 36.3 °F 31.4 °F 30.08 in WNW 2.0 mph 6.0 mph 82 % 0.00 in 7 W/m2
05:51 36.7 °F 32.0 °F 30.08 in WNW 1.0 mph 5.0 mph 83 % 0.00 in 9 W/m2
05:56 36.7 °F 32.0 °F 30.08 in WNW 1.0 mph 4.0 mph 83 % 0.00 in 12 W/m2
06:01 36.9 °F 32.2 °F 30.08 in WNW 2.0 mph 6.0 mph 83 % 0.00 in 14 W/m2
06:06 37.2 °F 32.5 °F 30.08 in WNW 2.0 mph 6.0 mph 83 % 0.00 in 18 W/m2
06:11 37.6 °F 32.9 °F 30.08 in WNW 1.0 mph 5.0 mph 83 % 0.00 in 23 W/m2
06:16 37.6 °F 32.9 °F 30.07 in WNW 1.0 mph 2.0 mph 83 % 0.00 in 28 W/m2
06:21 37.8 °F 33.1 °F 30.07 in Calm   2.0 mph 83 % 0.00 in 32 W/m2
06:26 37.9 °F 33.5 °F 30.07 in WNW 1.0 mph 6.0 mph 84 % 0.00 in 28 W/m2
06:31 38.3 °F 33.6 °F 30.07 in West 2.0 mph 7.0 mph 83 % 0.00 in 30 W/m2
06:36 38.7 °F 33.9 °F 30.07 in West 3.0 mph 7.0 mph 83 % 0.00 in 35 W/m2
06:41 39.0 °F 34.3 °F 30.07 in West 3.0 mph 7.0 mph 83 % 0.00 in 40 W/m2
06:46 39.4 °F 34.6 °F 30.07 in West 3.0 mph 7.0 mph 83 % 0.00 in 49 W/m2
06:51 39.7 °F 35.0 °F 30.07 in WNW 3.0 mph 7.0 mph 83 % 0.00 in 54 W/m2
06:56 39.9 °F 34.9 °F 30.07 in WNW 3.0 mph 7.0 mph 82 % 0.00 in 63 W/m2
07:01 40.3 °F 35.5 °F 30.07 in WNW 2.0 mph 6.0 mph 83 % 0.00 in 70 W/m2
07:06 40.5 °F 35.7 °F 30.07 in WNW 2.0 mph 7.0 mph 83 % 0.00 in 146 W/m2
07:11 41.0 °F 36.2 °F 30.06 in West 3.0 mph 8.0 mph 83 % 0.00 in 149 W/m2
07:16 41.5 °F 36.8 °F 30.06 in West 5.0 mph 12.0 mph 83 % 0.00 in 93 W/m2
07:21 42.1 °F 37.0 °F 30.06 in West 6.0 mph 12.0 mph 82 % 0.00 in 84 W/m2
07:26 42.3 °F 36.8 °F 30.06 in West 5.0 mph 10.0 mph 81 % 0.00 in 90 W/m2
07:31 42.4 °F 37.0 °F 30.06 in WNW 5.0 mph 11.0 mph 81 % 0.00 in 97 W/m2
07:36 42.6 °F 37.2 °F 30.06 in WNW 6.0 mph 13.0 mph 81 % 0.00 in 97 W/m2
07:41 43.0 °F 37.5 °F 30.06 in WNW 6.0 mph 13.0 mph 81 % 0.00 in 98 W/m2
07:46 43.0 °F 37.2 °F 30.06 in WNW 8.0 mph 18.0 mph 80 % 0.00 in 105 W/m2
07:51 43.2 °F 37.7 °F 30.06 in West 10.0 mph 18.0 mph 81 % 0.00 in 118 W/m2
07:56 43.2 °F 37.7 °F 30.06 in WNW 9.0 mph 18.0 mph 81 % 0.00 in 148 W/m2
08:01 43.3 °F 37.9 °F 30.06 in WNW 8.0 mph 16.0 mph 81 % 0.00 in 155 W/m2
08:07 43.5 °F 37.8 °F 30.06 in WNW 8.0 mph 14.0 mph 80 % 0.00 in 171 W/m2
08:12 43.9 °F 38.1 °F 30.06 in WNW 7.0 mph 15.0 mph 80 % 0.00 in 163 W/m2
08:17 44.2 °F 38.1 °F 30.06 in WNW 7.0 mph 15.0 mph 79 % 0.00 in 148 W/m2
08:22 44.4 °F 38.3 °F 30.05 in WNW 8.0 mph 15.0 mph 79 % 0.00 in 171 W/m2
08:27 44.8 °F 38.7 °F 30.06 in WNW 8.0 mph 14.0 mph 79 % 0.00 in 134 W/m2
08:32 45.0 °F 38.5 °F 30.06 in WNW 8.0 mph 15.0 mph 78 % 0.00 in 105 W/m2
08:37 45.0 °F 38.8 °F 30.05 in WNW 8.0 mph 15.0 mph 79 % 0.00 in 120 W/m2
08:42 45.0 °F 38.8 °F 30.06 in WNW 8.0 mph 18.0 mph 79 % 0.00 in 113 W/m2
08:47 45.0 °F 39.2 °F 30.06 in WNW 9.0 mph 18.0 mph 80 % 0.00 in 134 W/m2
08:52 45.0 °F 39.5 °F 30.05 in WNW 8.0 mph 16.0 mph 81 % 0.00 in 167 W/m2
08:57 45.0 °F 39.8 °F 30.05 in WNW 8.0 mph 16.0 mph 82 % 0.00 in 199 W/m2
09:02 45.1 °F 40.0 °F 30.05 in WNW 8.0 mph 16.0 mph 82 % 0.00 in 169 W/m2
09:07 45.1 °F 40.0 °F 30.05 in WNW 8.0 mph 16.0 mph 82 % 0.00 in 213 W/m2
09:09 45.1 °F 40.3 °F 30.05 in WNW 8.0 mph 16.0 mph 83 % 0.00 in 248 W/m2
09:14 45.3 °F 40.5 °F 30.05 in WNW 8.0 mph 18.0 mph 83 % 0.00 in 246 W/m2
09:19 45.7 °F 40.8 °F 30.05 in WNW 9.0 mph 18.0 mph 83 % 0.00 in 257 W/m2
09:24 45.9 °F 40.7 °F 30.05 in WNW 10.0 mph 16.0 mph 82 % 0.00 in 218 W/m2
09:29 46.0 °F 40.9 °F 30.05 in WNW 10.0 mph 18.0 mph 82 % 0.00 in 167 W/m2
09:34 46.0 °F 40.9 °F 30.05 in West 10.0 mph 18.0 mph 82 % 0.00 in 149 W/m2
09:39 46.0 °F 40.5 °F 30.04 in West 9.0 mph 16.0 mph 81 % 0.00 in 188 W/m2
09:44 46.2 °F 40.7 °F 30.04 in West 9.0 mph 16.0 mph 81 % 0.00 in 241 W/m2
09:49 46.4 °F 41.2 °F 30.04 in West 9.0 mph 16.0 mph 82 % 0.00 in 227 W/m2
09:54 46.8 °F 41.2 °F 30.04 in WNW 8.0 mph 15.0 mph 81 % 0.00 in 195 W/m2
09:59 46.8 °F 40.9 °F 30.04 in WNW 9.0 mph 18.0 mph 80 % 0.00 in 220 W/m2
10:04 46.9 °F 41.1 °F 30.04 in WNW 10.0 mph 18.0 mph 80 % 0.00 in 234 W/m2
10:09 47.1 °F 41.3 °F 30.04 in WNW 10.0 mph 19.0 mph 80 % 0.00 in 302 W/m2
10:14 47.7 °F 41.8 °F 30.04 in WNW 10.0 mph 20.0 mph 80 % 0.00 in 385 W/m2
10:19 48.0 °F 41.8 °F 30.04 in WNW 10.0 mph 20.0 mph 79 % 0.00 in 290 W/m2
10:29 48.6 °F 42.0 °F 30.04 in WNW 11.0 mph 22.0 mph 78 % 0.00 in 248 W/m2
10:34 48.6 °F 42.7 °F 30.04 in WNW 11.0 mph 22.0 mph 80 % 0.00 in 272 W/m2
10:39 48.2 °F 43.0 °F 30.04 in WNW 11.0 mph 20.0 mph 82 % 0.00 in 294 W/m2
10:44 47.8 °F 43.2 °F 30.04 in WNW 10.0 mph 19.0 mph 84 % 0.00 in 202 W/m2
10:49 47.5 °F 42.9 °F 30.04 in WNW 9.0 mph 18.0 mph 84 % 0.00 in 216 W/m2
10:54 47.3 °F 43.0 °F 30.04 in WNW 9.0 mph 18.0 mph 85 % 0.00 in 251 W/m2
10:59 47.1 °F 43.1 °F 30.04 in WNW 8.0 mph 14.0 mph 86 % 0.00 in 287 W/m2
11:04 47.1 °F 43.1 °F 30.03 in West 9.0 mph 16.0 mph 86 % 0.00 in 308 W/m2
11:09 46.9 °F 43.3 °F 30.03 in West 11.0 mph 19.0 mph 87 % 0.00 in 353 W/m2
11:15 46.9 °F 43.6 °F 30.03 in West 12.0 mph 19.0 mph 88 % 0.00 in 243 W/m2
11:20 46.8 °F 43.4 °F 30.03 in West 11.0 mph 16.0 mph 88 % 0.00 in 264 W/m2
11:25 46.6 °F 43.5 °F 30.03 in West 10.0 mph 16.0 mph 89 % 0.01 in 251 W/m2
11:30 46.6 °F 43.8 °F 30.02 in West 9.0 mph 18.0 mph 90 % 0.01 in 313 W/m2
11:35 46.8 °F 44.0 °F 30.02 in West 9.0 mph 18.0 mph 90 % 0.01 in 316 W/m2
11:40 46.8 °F 44.0 °F 30.02 in West 8.0 mph 16.0 mph 90 % 0.01 in 334 W/m2
11:45 47.1 °F 44.6 °F 30.02 in West 8.0 mph 16.0 mph 91 % 0.01 in 325 W/m2
11:50 47.7 °F 45.2 °F 30.01 in WNW 7.0 mph 15.0 mph 91 % 0.01 in 504 W/m2
11:55 48.2 °F 45.7 °F 30.01 in WNW 6.0 mph 11.0 mph 91 % 0.01 in 422 W/m2
12:00 48.6 °F 45.5 °F 30.01 in WNW 8.0 mph 19.0 mph 89 % 0.01 in 504 W/m2
12:05 49.3 °F 45.9 °F 30.01 in WNW 10.0 mph 19.0 mph 88 % 0.01 in 608 W/m2
12:10 49.8 °F 45.5 °F 30.01 in WNW 11.0 mph 21.0 mph 85 % 0.01 in 348 W/m2
12:15 50.2 °F 45.2 °F 30.01 in WNW 13.0 mph 22.0 mph 83 % 0.01 in 445 W/m2
12:20 49.8 °F 44.5 °F 30.01 in WNW 13.0 mph 23.0 mph 82 % 0.01 in 367 W/m2
12:25 49.8 °F 44.2 °F 30.01 in WNW 12.0 mph 23.0 mph 81 % 0.00 in 476 W/m2
12:30 50.4 °F 45.1 °F 30.01 in WNW 10.0 mph 18.0 mph 82 % 0.00 in 480 W/m2
12:35 50.9 °F 44.9 °F 30.01 in WNW 10.0 mph 20.0 mph 80 % 0.00 in 369 W/m2
12:40 51.1 °F 44.5 °F 30.00 in WNW 11.0 mph 20.0 mph 78 % 0.00 in 425 W/m2
12:45 51.3 °F 44.3 °F 30.00 in WNW 10.0 mph 19.0 mph 77 % 0.00 in 302 W/m2
12:50 51.4 °F 44.5 °F 30.00 in WNW 9.0 mph 19.0 mph 77 % 0.00 in 265 W/m2
12:55 51.1 °F 44.5 °F 30.00 in WNW 10.0 mph 21.0 mph 78 % 0.00 in 255 W/m2
13:00 50.5 °F 44.3 °F 30.00 in WNW 12.0 mph 21.0 mph 79 % 0.00 in 200 W/m2
13:05 50.4 °F 44.1 °F 30.00 in WNW 11.0 mph 20.0 mph 79 % 0.00 in 359 W/m2
13:06 50.4 °F 44.4 °F 30.00 in WNW 11.0 mph 20.0 mph 80 % 0.00 in 320 W/m2
13:11 50.2 °F 44.2 °F 30.00 in NW 10.0 mph 19.0 mph 80 % 0.00 in 318 W/m2
13:16 50.4 °F 44.4 °F 30.00 in NW 10.0 mph 19.0 mph 80 % 0.00 in 311 W/m2
13:21 50.4 °F 44.1 °F 30.00 in WNW 10.0 mph 19.0 mph 79 % 0.00 in 281 W/m2
13:26 50.5 °F 44.3 °F 30.00 in NW 9.0 mph 19.0 mph 79 % 0.00 in 436 W/m2
13:31 50.9 °F 43.9 °F 30.00 in NW 8.0 mph 15.0 mph 77 % 0.00 in 452 W/m2
13:37 51.6 °F 44.0 °F 30.00 in WNW 9.0 mph 18.0 mph 75 % 0.00 in 454 W/m2
13:42 52.2 °F 43.8 °F 30.00 in WNW 10.0 mph 18.0 mph 73 % 0.00 in 339 W/m2
13:47 52.3 °F 43.9 °F 30.00 in WNW 11.0 mph 18.0 mph 73 % 0.00 in 151 W/m2
13:52 52.0 °F 44.6 °F 30.00 in WNW 10.0 mph 19.0 mph 76 % 0.00 in 149 W/m2
13:57 51.4 °F 44.8 °F 30.00 in NW 8.0 mph 19.0 mph 78 % 0.00 in 95 W/m2
14:02 50.7 °F 45.1 °F 30.00 in NW 8.0 mph 19.0 mph 81 % 0.02 in 165 W/m2
14:07 49.8 °F 44.9 °F 30.00 in NW 8.0 mph 19.0 mph 83 % 0.02 in 394 W/m2
14:12 49.5 °F 45.1 °F 30.00 in NW 7.0 mph 12.0 mph 85 % 0.02 in 153 W/m2
14:17 49.3 °F 45.3 °F 30.00 in NW 7.0 mph 12.0 mph 86 % 0.02 in 158 W/m2
14:22 49.1 °F 45.4 °F 30.00 in WNW 7.0 mph 12.0 mph 87 % 0.02 in 285 W/m2
14:27 49.3 °F 45.9 °F 29.99 in WNW 7.0 mph 18.0 mph 88 % 0.02 in 241 W/m2
14:32 49.3 °F 45.6 °F 30.00 in WNW 8.0 mph 18.0 mph 87 % 0.02 in 325 W/m2
14:37 49.5 °F 45.8 °F 30.00 in WNW 9.0 mph 14.0 mph 87 % 0.02 in 329 W/m2
14:42 50.0 °F 46.3 °F 29.99 in WNW 9.0 mph 19.0 mph 87 % 0.02 in 285 W/m2
14:47 50.2 °F 45.5 °F 29.99 in WNW 10.0 mph 19.0 mph 84 % 0.02 in 679 W/m2
14:52 50.7 °F 45.7 °F 30.00 in WNW 12.0 mph 20.0 mph 83 % 0.02 in 476 W/m2
14:57 51.3 °F 46.0 °F 30.00 in WNW 11.0 mph 20.0 mph 82 % 0.02 in 399 W/m2
15:02 51.3 °F 45.6 °F 30.00 in WNW 10.0 mph 20.0 mph 81 % 0.01 in 311 W/m2
15:07 51.3 °F 45.3 °F 30.00 in WNW 9.0 mph 16.0 mph 80 % 0.00 in 290 W/m2
15:12 51.3 °F 45.0 °F 30.00 in WNW 9.0 mph 16.0 mph 79 % 0.00 in 345 W/m2
15:17 51.4 °F 45.1 °F 29.99 in WNW 9.0 mph 16.0 mph 79 % 0.00 in 425 W/m2
15:22 51.6 °F 45.0 °F 29.99 in WNW 9.0 mph 16.0 mph 78 % 0.00 in 360 W/m2
15:27 52.2 °F 45.5 °F 29.99 in WNW 9.0 mph 16.0 mph 78 % 0.00 in 302 W/m2
15:32 52.3 °F 45.3 °F 29.99 in WNW 8.0 mph 15.0 mph 77 % 0.00 in 207 W/m2
15:37 52.3 °F 45.3 °F 29.99 in WNW 8.0 mph 15.0 mph 77 % 0.00 in 204 W/m2
15:42 52.2 °F 44.8 °F 29.99 in WNW 9.0 mph 15.0 mph 76 % 0.00 in 144 W/m2
15:47 52.2 °F 44.8 °F 29.99 in WNW 9.0 mph 15.0 mph 76 % 0.00 in 114 W/m2
15:52 52.0 °F 44.6 °F 29.99 in WNW 8.0 mph 15.0 mph 76 % 0.00 in 70 W/m2
15:57 51.6 °F 44.0 °F 29.99 in WNW 8.0 mph 15.0 mph 75 % 0.00 in 67 W/m2
16:02 51.3 °F 44.0 °F 29.99 in WNW 9.0 mph 15.0 mph 76 % 0.00 in 79 W/m2
16:07 51.1 °F 43.8 °F 29.99 in WNW 9.0 mph 15.0 mph 76 % 0.00 in 67 W/m2
16:12 51.1 °F 43.8 °F 29.99 in NW 8.0 mph 15.0 mph 76 % 0.00 in 63 W/m2
16:17 50.7 °F 43.8 °F 29.99 in NW 6.0 mph 13.0 mph 77 % 0.00 in 65 W/m2
16:22 50.7 °F 43.8 °F 29.99 in NW 4.0 mph 11.0 mph 77 % 0.00 in 42 W/m2
16:27 50.7 °F 44.4 °F 29.99 in NW 5.0 mph 13.0 mph 79 % 0.00 in 65 W/m2
16:28 50.5 °F 44.3 °F 29.99 in NW 6.0 mph 13.0 mph 79 % 0.00 in 67 W/m2
16:33 50.2 °F 44.2 °F 29.99 in NW 8.0 mph 16.0 mph 80 % 0.00 in 51 W/m2
16:38 49.8 °F 44.5 °F 29.99 in NW 6.0 mph 16.0 mph 82 % 0.00 in 60 W/m2
16:43 49.6 °F 44.7 °F 29.99 in NW 4.0 mph 9.0 mph 83 % 0.01 in 60 W/m2
16:44 49.5 °F 44.8 °F 29.99 in NW 4.0 mph 9.0 mph 84 % 0.01 in 60 W/m2
16:49 49.3 °F 45.0 °F 29.99 in NNW 4.0 mph 9.0 mph 85 % 0.02 in 49 W/m2
16:54 48.9 °F 44.9 °F 29.99 in North 4.0 mph 9.0 mph 86 % 0.02 in 39 W/m2
16:59 48.6 °F 44.9 °F 29.99 in North 4.0 mph 10.0 mph 87 % 0.03 in 39 W/m2
17:04 48.4 °F 45.3 °F 29.99 in NNW 2.0 mph 10.0 mph 89 % 0.03 in 105 W/m2
17:09 48.6 °F 45.5 °F 29.99 in NNW 1.0 mph 6.0 mph 89 % 0.03 in 123 W/m2
17:14 48.6 °F 45.8 °F 29.98 in NNW 2.0 mph 6.0 mph 90 % 0.03 in 149 W/m2
17:19 48.7 °F 45.9 °F 29.98 in NNW 2.0 mph 6.0 mph 90 % 0.03 in 181 W/m2
17:24 48.9 °F 46.1 °F 29.98 in NW 2.0 mph 6.0 mph 90 % 0.03 in 200 W/m2
17:29 49.1 °F 46.3 °F 29.98 in NW 1.0 mph 5.0 mph 90 % 0.03 in 197 W/m2
17:34 49.3 °F 46.5 °F 29.98 in WNW 1.0 mph 4.0 mph 90 % 0.03 in 278 W/m2
17:39 49.5 °F 46.6 °F 29.98 in WNW 2.0 mph 6.0 mph 90 % 0.03 in 264 W/m2
17:44 49.8 °F 47.3 °F 29.98 in West 2.0 mph 7.0 mph 91 % 0.02 in 206 W/m2
17:49 50.2 °F 47.4 °F 29.98 in West 2.0 mph 7.0 mph 90 % 0.02 in 127 W/m2
17:54 50.2 °F 47.1 °F 29.98 in West 2.0 mph 5.0 mph 89 % 0.01 in 142 W/m2
17:59 50.2 °F 47.1 °F 29.98 in West 1.0 mph 5.0 mph 89 % 0.00 in 339 W/m2
18:04 50.5 °F 47.4 °F 29.98 in West 1.0 mph 4.0 mph 89 % 0.00 in 343 W/m2
18:09 50.9 °F 46.9 °F 29.98 in WNW 4.0 mph 16.0 mph 86 % 0.00 in 107 W/m2
18:14 50.9 °F 45.9 °F 29.98 in WNW 8.0 mph 16.0 mph 83 % 0.00 in 67 W/m2
18:19 50.7 °F 45.7 °F 29.98 in WNW 8.0 mph 14.0 mph 83 % 0.00 in 83 W/m2
18:24 50.7 °F 45.7 °F 29.98 in West 6.0 mph 14.0 mph 83 % 0.00 in 120 W/m2
18:29 50.7 °F 45.7 °F 29.97 in West 6.0 mph 12.0 mph 83 % 0.00 in 192 W/m2
18:34 50.7 °F 45.4 °F 29.97 in West 8.0 mph 18.0 mph 82 % 0.00 in 113 W/m2
18:39 50.9 °F 45.3 °F 29.97 in West 10.0 mph 21.0 mph 81 % 0.00 in 114 W/m2
18:44 51.1 °F 45.5 °F 29.97 in WNW 10.0 mph 21.0 mph 81 % 0.00 in 146 W/m2
18:49 51.1 °F 44.8 °F 29.97 in WNW 11.0 mph 20.0 mph 79 % 0.00 in 167 W/m2
18:54 51.3 °F 44.3 °F 29.97 in WNW 12.0 mph 23.0 mph 77 % 0.00 in 202 W/m2
19:00 51.4 °F 44.5 °F 29.97 in WNW 11.0 mph 23.0 mph 77 % 0.00 in 42 W/m2
19:04 51.3 °F 44.3 °F 29.97 in WNW 9.0 mph 18.0 mph 77 % 0.00 in 33 W/m2
19:09 51.1 °F 44.5 °F 29.98 in WNW 9.0 mph 16.0 mph 78 % 0.00 in 37 W/m2
19:15 50.7 °F 44.1 °F 29.98 in WNW 9.0 mph 16.0 mph 78 % 0.00 in 25 W/m2
19:19 50.5 °F 43.6 °F 29.98 in WNW 9.0 mph 19.0 mph 77 % 0.00 in 16 W/m2
19:25 50.4 °F 43.8 °F 29.99 in WNW 8.0 mph 19.0 mph 78 % 0.00 in 18 W/m2
19:29 50.2 °F 44.2 °F 30.00 in NW 9.0 mph 16.0 mph 80 % 0.00 in 7 W/m2
19:35 49.1 °F 43.8 °F 30.00 in NNW 9.0 mph 15.0 mph 82 % 0.02 in 7 W/m2
19:40 48.0 °F 43.4 °F 30.00 in North 7.0 mph 14.0 mph 84 % 0.04 in 5 W/m2
19:45 47.5 °F 43.8 °F 30.00 in NNE 5.0 mph 10.0 mph 87 % 0.05 in 7 W/m2
19:50 46.9 °F 43.6 °F 30.01 in NNE 5.0 mph 10.0 mph 88 % 0.05 in 7 W/m2
19:55 46.8 °F 43.7 °F 30.00 in North 5.0 mph 8.0 mph 89 % 0.06 in 0 W/m2
20:00 46.8 °F 44.0 °F 30.00 in NNW 4.0 mph 8.0 mph 90 % 0.06 in 0 W/m2
20:05 46.8 °F 44.0 °F 30.01 in NNW 2.0 mph 6.0 mph 90 % 0.06 in 0 W/m2
20:10 46.6 °F 44.1 °F 30.01 in North 2.0 mph 7.0 mph 91 % 0.06 in 0 W/m2
20:15 46.4 °F 43.9 °F 30.01 in North 2.0 mph 7.0 mph 91 % 0.06 in 0 W/m2
20:20 46.4 °F 43.9 °F 30.01 in North 1.0 mph 5.0 mph 91 % 0.06 in 0 W/m2
20:21 46.2 °F 43.7 °F 30.01 in North 1.0 mph 5.0 mph 91 % 0.06 in 0 W/m2
20:26 46.2 °F 43.7 °F 30.01 in NNE 2.0 mph 7.0 mph 91 % 0.06 in 0 W/m2
20:31 46.0 °F 43.6 °F 30.01 in NNE 1.0 mph 7.0 mph 91 % 0.04 in 0 W/m2
20:36 46.0 °F 43.6 °F 30.01 in Calm   4.0 mph 91 % 0.02 in 0 W/m2
20:41 45.9 °F 43.4 °F 30.01 in Calm   1.0 mph 91 % 0.01 in 0 W/m2
20:46 45.9 °F 43.7 °F 30.02 in Calm   1.0 mph 92 % 0.01 in 0 W/m2
20:51 45.9 °F 43.7 °F 30.02 in Calm     92 % 0.00 in 0 W/m2
20:56 45.9 °F 43.7 °F 30.02 in Calm     92 % 0.00 in 0 W/m2
21:01 45.9 °F 43.7 °F 30.02 in Calm   1.0 mph 92 % 0.01 in 0 W/m2
21:06 45.9 °F 43.7 °F 30.02 in Calm   1.0 mph 92 % 0.01 in 0 W/m2
21:11 45.9 °F 44.0 °F 30.03 in Calm     93 % 0.01 in 0 W/m2
21:16 45.9 °F 44.0 °F 30.03 in Calm   1.0 mph 93 % 0.02 in 0 W/m2
21:21 46.0 °F 44.1 °F 30.02 in Calm   1.0 mph 93 % 0.02 in 0 W/m2
21:26 46.0 °F 44.1 °F 30.03 in Calm     93 % 0.02 in 0 W/m2
21:31 45.9 °F 44.0 °F 30.03 in Calm     93 % 0.02 in 0 W/m2
21:36 46.0 °F 44.4 °F 30.03 in Calm     94 % 0.02 in 0 W/m2
21:41 46.0 °F 44.4 °F 30.02 in Calm     94 % 0.02 in 0 W/m2
21:46 46.0 °F 44.4 °F 30.03 in Calm     94 % 0.02 in 0 W/m2
21:52 46.0 °F 44.4 °F 30.03 in Calm     94 % 0.02 in 0 W/m2
21:57 45.9 °F 44.2 °F 30.03 in Calm   2.0 mph 94 % 0.02 in 0 W/m2
22:02 45.9 °F 44.2 °F 30.03 in North 2.0 mph 8.0 mph 94 % 0.02 in 0 W/m2
22:07 45.9 °F 44.2 °F 30.03 in NNE 4.0 mph 10.0 mph 94 % 0.02 in 0 W/m2
22:12 45.7 °F 44.1 °F 30.03 in NE 3.0 mph 10.0 mph 94 % 0.02 in 0 W/m2
22:17 45.5 °F 43.6 °F 30.03 in NE 2.0 mph 6.0 mph 93 % 0.02 in 0 W/m2
22:22 45.3 °F 43.4 °F 30.03 in NE 1.0 mph 5.0 mph 93 % 0.02 in 0 W/m2
22:27 45.1 °F 43.2 °F 30.03 in Calm   2.0 mph 93 % 0.01 in 0 W/m2
22:32 45.1 °F 43.5 °F 30.03 in Calm   2.0 mph 94 % 0.01 in 0 W/m2
22:37 45.1 °F 43.5 °F 30.03 in Calm   1.0 mph 94 % 0.01 in 0 W/m2
22:42 45.1 °F 43.5 °F 30.03 in Calm   1.0 mph 94 % 0.01 in 0 W/m2
22:47 45.1 °F 43.5 °F 30.04 in Calm   2.0 mph 94 % 0.02 in 0 W/m2
22:52 45.1 °F 43.5 °F 30.03 in North 1.0 mph 3.0 mph 94 % 0.02 in 0 W/m2
22:57 45.1 °F 43.5 °F 30.04 in NNW 1.0 mph 3.0 mph 94 % 0.02 in 0 W/m2
23:02 45.3 °F 43.7 °F 30.03 in NNW 1.0 mph 5.0 mph 94 % 0.02 in 0 W/m2
23:07 45.1 °F 43.5 °F 30.04 in NW 1.0 mph 5.0 mph 94 % 0.01 in 0 W/m2
23:12 45.1 °F 43.5 °F 30.03 in NNW 1.0 mph 5.0 mph 94 % 0.02 in 0 W/m2
23:17 45.1 °F 43.5 °F 30.04 in Calm   2.0 mph 94 % 0.02 in 0 W/m2
23:22 45.1 °F 43.5 °F 30.04 in Calm   2.0 mph 94 % 0.02 in 0 W/m2
23:27 45.1 °F 43.5 °F 30.04 in Calm   2.0 mph 94 % 0.02 in 0 W/m2
23:32 45.0 °F 43.3 °F 30.04 in Calm   2.0 mph 94 % 0.02 in 0 W/m2
23:37 45.0 °F 43.3 °F 30.04 in NNW 1.0 mph 3.0 mph 94 % 0.02 in 0 W/m2
23:42 44.8 °F 43.2 °F 30.04 in NNW 1.0 mph 3.0 mph 94 % 0.02 in 0 W/m2
23:47 44.8 °F 43.2 °F 30.04 in Calm   3.0 mph 94 % 0.01 in 0 W/m2
23:52 44.8 °F 43.4 °F 30.04 in Calm   1.0 mph 95 % 0.01 in 0 W/m2
23:57 44.8 °F 43.4 °F 30.04 in Calm   1.0 mph 95 % 0.01 in 0 W/m2
Delerius-Weather
Compliments of Weather Underground - 2.25 mb

Data updates at regular intervals.